sensor_id;sensor_type;location;lat;lon;timestamp;temperature;humidity
64012;DHT22;50211;52.768;12.124;2023-08-17T00:00:21;19.30;99.90
64012;DHT22;50211;52.768;12.124;2023-08-17T00:02:46;19.30;99.90
64012;DHT22;50211;52.768;12.124;2023-08-17T00:05:12;19.30;99.90
64012;DHT22;50211;52.768;12.124;2023-08-17T00:07:37;19.30;99.90
64012;DHT22;50211;52.768;12.124;2023-08-17T00:10:03;19.20;99.90
64012;DHT22;50211;52.768;12.124;2023-08-17T00:12:29;19.20;99.90
64012;DHT22;50211;52.768;12.124;2023-08-17T00:14:54;19.20;99.90
64012;DHT22;50211;52.768;12.124;2023-08-17T00:17:20;19.20;99.90
64012;DHT22;50211;52.768;12.124;2023-08-17T00:19:46;19.20;99.90
64012;DHT22;50211;52.768;12.124;2023-08-17T00:22:11;19.20;99.90
64012;DHT22;50211;52.768;12.124;2023-08-17T00:24:37;19.20;99.90
64012;DHT22;50211;52.768;12.124;2023-08-17T00:27:03;19.10;99.90
64012;DHT22;50211;52.768;12.124;2023-08-17T00:29:29;19.10;99.90
64012;DHT22;50211;52.768;12.124;2023-08-17T00:31:55;19.10;99.90
64012;DHT22;50211;52.768;12.124;2023-08-17T00:34:20;19.10;99.90
64012;DHT22;50211;52.768;12.124;2023-08-17T00:36:46;19.00;99.90
64012;DHT22;50211;52.768;12.124;2023-08-17T00:39:11;19.00;99.90
64012;DHT22;50211;52.768;12.124;2023-08-17T00:41:37;19.00;99.90
64012;DHT22;50211;52.768;12.124;2023-08-17T00:44:02;18.90;99.90
64012;DHT22;50211;52.768;12.124;2023-08-17T00:46:29;19.00;99.90
64012;DHT22;50211;52.768;12.124;2023-08-17T00:48:55;19.00;99.90
64012;DHT22;50211;52.768;12.124;2023-08-17T00:51:23;18.90;99.90
64012;DHT22;50211;52.768;12.124;2023-08-17T00:53:51;18.80;99.90
64012;DHT22;50211;52.768;12.124;2023-08-17T00:56:17;18.90;99.90
64012;DHT22;50211;52.768;12.124;2023-08-17T00:58:43;18.80;99.90
64012;DHT22;50211;52.768;12.124;2023-08-17T01:01:09;18.90;99.90
64012;DHT22;50211;52.768;12.124;2023-08-17T01:03:34;18.80;99.90
64012;DHT22;50211;52.768;12.124;2023-08-17T01:06:02;18.80;99.90
64012;DHT22;50211;52.768;12.124;2023-08-17T01:08:29;18.80;99.90
64012;DHT22;50211;52.768;12.124;2023-08-17T01:13:36;18.70;99.90
64012;DHT22;50211;52.768;12.124;2023-08-17T01:16:05;18.70;99.90
64012;DHT22;50211;52.768;12.124;2023-08-17T01:18:35;18.70;99.90
64012;DHT22;50211;52.768;12.124;2023-08-17T01:21:05;18.70;99.90
64012;DHT22;50211;52.768;12.124;2023-08-17T01:23:31;18.70;99.90
64012;DHT22;50211;52.768;12.124;2023-08-17T01:25:57;18.70;99.90
64012;DHT22;50211;52.768;12.124;2023-08-17T01:28:23;18.60;99.90
64012;DHT22;50211;52.768;12.124;2023-08-17T01:31:10;18.70;99.90
64012;DHT22;50211;52.768;12.124;2023-08-17T01:33:50;18.60;99.90
64012;DHT22;50211;52.768;12.124;2023-08-17T01:36:31;18.60;99.90
64012;DHT22;50211;52.768;12.124;2023-08-17T01:38:58;18.60;99.90
64012;DHT22;50211;52.768;12.124;2023-08-17T01:41:26;18.60;99.90
64012;DHT22;50211;52.768;12.124;2023-08-17T01:43:52;18.60;99.90
64012;DHT22;50211;52.768;12.124;2023-08-17T01:46:19;18.60;99.90
64012;DHT22;50211;52.768;12.124;2023-08-17T01:48:45;18.60;99.90
64012;DHT22;50211;52.768;12.124;2023-08-17T01:51:17;18.60;99.90
64012;DHT22;50211;52.768;12.124;2023-08-17T01:53:43;18.60;99.90
64012;DHT22;50211;52.768;12.124;2023-08-17T01:56:09;18.60;99.90
64012;DHT22;50211;52.768;12.124;2023-08-17T01:58:34;18.50;99.90
64012;DHT22;50211;52.768;12.124;2023-08-17T02:01:00;18.50;99.90
64012;DHT22;50211;52.768;12.124;2023-08-17T02:03:26;18.50;99.90
64012;DHT22;50211;52.768;12.124;2023-08-17T02:05:55;18.50;99.90
64012;DHT22;50211;52.768;12.124;2023-08-17T02:08:21;18.50;99.90
64012;DHT22;50211;52.768;12.124;2023-08-17T02:10:46;18.50;99.90
64012;DHT22;50211;52.768;12.124;2023-08-17T02:13:12;18.50;99.90
64012;DHT22;50211;52.768;12.124;2023-08-17T02:15:39;18.50;99.90
64012;DHT22;50211;52.768;12.124;2023-08-17T02:18:04;18.50;99.90
64012;DHT22;50211;52.768;12.124;2023-08-17T02:20:30;18.50;99.90
64012;DHT22;50211;52.768;12.124;2023-08-17T02:22:56;18.50;99.90
64012;DHT22;50211;52.768;12.124;2023-08-17T02:25:21;18.50;99.90
64012;DHT22;50211;52.768;12.124;2023-08-17T02:27:47;18.40;99.90
64012;DHT22;50211;52.768;12.124;2023-08-17T02:30:13;18.40;99.90
64012;DHT22;50211;52.768;12.124;2023-08-17T02:32:38;18.40;99.90
64012;DHT22;50211;52.768;12.124;2023-08-17T02:35:04;18.40;99.90
64012;DHT22;50211;52.768;12.124;2023-08-17T02:37:30;18.40;99.90
64012;DHT22;50211;52.768;12.124;2023-08-17T02:39:55;18.40;99.90
64012;DHT22;50211;52.768;12.124;2023-08-17T02:42:21;18.40;99.90
64012;DHT22;50211;52.768;12.124;2023-08-17T02:44:47;18.40;99.90
64012;DHT22;50211;52.768;12.124;2023-08-17T02:47:12;18.40;99.90
64012;DHT22;50211;52.768;12.124;2023-08-17T02:49:37;18.40;99.90
64012;DHT22;50211;52.768;12.124;2023-08-17T02:52:03;18.30;99.90
64012;DHT22;50211;52.768;12.124;2023-08-17T02:54:29;18.30;99.90
64012;DHT22;50211;52.768;12.124;2023-08-17T02:56:54;18.30;99.90
64012;DHT22;50211;52.768;12.124;2023-08-17T02:59:20;18.20;99.90
64012;DHT22;50211;52.768;12.124;2023-08-17T03:01:45;18.30;99.90
64012;DHT22;50211;52.768;12.124;2023-08-17T03:04:11;18.30;99.90
64012;DHT22;50211;52.768;12.124;2023-08-17T03:06:36;18.20;99.90
64012;DHT22;50211;52.768;12.124;2023-08-17T03:09:02;18.20;99.90
64012;DHT22;50211;52.768;12.124;2023-08-17T03:11:28;18.10;99.90
64012;DHT22;50211;52.768;12.124;2023-08-17T03:13:53;18.20;99.90
64012;DHT22;50211;52.768;12.124;2023-08-17T03:16:27;18.10;99.90
64012;DHT22;50211;52.768;12.124;2023-08-17T03:18:55;18.10;99.90
64012;DHT22;50211;52.768;12.124;2023-08-17T03:21:21;18.10;99.90
64012;DHT22;50211;52.768;12.124;2023-08-17T03:23:48;18.10;99.90
64012;DHT22;50211;52.768;12.124;2023-08-17T03:26:13;18.10;99.90
64012;DHT22;50211;52.768;12.124;2023-08-17T03:28:39;18.10;99.90
64012;DHT22;50211;52.768;12.124;2023-08-17T03:31:06;18.00;99.90
64012;DHT22;50211;52.768;12.124;2023-08-17T03:33:32;18.10;99.90
64012;DHT22;50211;52.768;12.124;2023-08-17T03:35:57;18.00;99.90
64012;DHT22;50211;52.768;12.124;2023-08-17T03:38:23;18.00;99.90
64012;DHT22;50211;52.768;12.124;2023-08-17T03:40:48;18.00;99.90
64012;DHT22;50211;52.768;12.124;2023-08-17T03:43:14;18.00;99.90
64012;DHT22;50211;52.768;12.124;2023-08-17T03:45:43;17.90;99.90
64012;DHT22;50211;52.768;12.124;2023-08-17T03:48:08;17.90;99.90
64012;DHT22;50211;52.768;12.124;2023-08-17T03:50:34;17.90;99.90
64012;DHT22;50211;52.768;12.124;2023-08-17T03:53:00;17.90;99.90
64012;DHT22;50211;52.768;12.124;2023-08-17T03:55:25;17.90;99.90
64012;DHT22;50211;52.768;12.124;2023-08-17T03:57:51;17.90;99.90
64012;DHT22;50211;52.768;12.124;2023-08-17T04:00:16;17.90;99.90
64012;DHT22;50211;52.768;12.124;2023-08-17T04:02:42;17.80;99.90
64012;DHT22;50211;52.768;12.124;2023-08-17T04:05:08;17.80;99.90
64012;DHT22;50211;52.768;12.124;2023-08-17T04:07:34;17.80;99.90
64012;DHT22;50211;52.768;12.124;2023-08-17T04:09:59;17.70;99.90
64012;DHT22;50211;52.768;12.124;2023-08-17T04:12:25;17.80;99.90
64012;DHT22;50211;52.768;12.124;2023-08-17T04:14:50;17.70;99.90
64012;DHT22;50211;52.768;12.124;2023-08-17T04:17:16;17.70;99.90
64012;DHT22;50211;52.768;12.124;2023-08-17T04:19:42;17.70;99.90
64012;DHT22;50211;52.768;12.124;2023-08-17T04:22:07;17.70;99.90
64012;DHT22;50211;52.768;12.124;2023-08-17T04:24:33;17.70;99.90
64012;DHT22;50211;52.768;12.124;2023-08-17T04:26:58;17.60;99.90
64012;DHT22;50211;52.768;12.124;2023-08-17T04:29:24;17.60;99.90
64012;DHT22;50211;52.768;12.124;2023-08-17T04:31:49;17.60;99.90
64012;DHT22;50211;52.768;12.124;2023-08-17T04:34:15;17.60;99.90
64012;DHT22;50211;52.768;12.124;2023-08-17T04:36:40;17.60;99.90
64012;DHT22;50211;52.768;12.124;2023-08-17T04:39:06;17.60;99.90
64012;DHT22;50211;52.768;12.124;2023-08-17T04:41:31;17.70;99.90
64012;DHT22;50211;52.768;12.124;2023-08-17T04:43:57;17.70;99.90
64012;DHT22;50211;52.768;12.124;2023-08-17T04:46:22;17.70;99.90
64012;DHT22;50211;52.768;12.124;2023-08-17T04:48:48;17.70;99.90
64012;DHT22;50211;52.768;12.124;2023-08-17T04:51:15;17.70;99.90
64012;DHT22;50211;52.768;12.124;2023-08-17T04:53:40;17.70;99.90
64012;DHT22;50211;52.768;12.124;2023-08-17T04:56:06;17.70;99.90
64012;DHT22;50211;52.768;12.124;2023-08-17T04:58:32;17.70;99.90
64012;DHT22;50211;52.768;12.124;2023-08-17T05:00:58;17.70;99.90
64012;DHT22;50211;52.768;12.124;2023-08-17T05:03:24;17.70;99.90
64012;DHT22;50211;52.768;12.124;2023-08-17T05:05:52;17.70;99.90
64012;DHT22;50211;52.768;12.124;2023-08-17T05:08:17;17.80;99.90
64012;DHT22;50211;52.768;12.124;2023-08-17T05:10:43;17.80;99.90
64012;DHT22;50211;52.768;12.124;2023-08-17T05:13:08;17.70;99.90
64012;DHT22;50211;52.768;12.124;2023-08-17T05:15:34;17.60;99.90
64012;DHT22;50211;52.768;12.124;2023-08-17T05:17:59;17.40;99.90
64012;DHT22;50211;52.768;12.124;2023-08-17T05:20:25;17.30;99.90
64012;DHT22;50211;52.768;12.124;2023-08-17T05:22:50;17.30;99.90
64012;DHT22;50211;52.768;12.124;2023-08-17T05:25:16;17.40;99.90
64012;DHT22;50211;52.768;12.124;2023-08-17T05:27:41;17.40;99.90
64012;DHT22;50211;52.768;12.124;2023-08-17T05:30:07;17.40;99.90
64012;DHT22;50211;52.768;12.124;2023-08-17T05:32:33;17.40;99.90
64012;DHT22;50211;52.768;12.124;2023-08-17T05:34:58;17.50;99.90
64012;DHT22;50211;52.768;12.124;2023-08-17T05:37:24;17.50;99.90
64012;DHT22;50211;52.768;12.124;2023-08-17T05:39:49;17.60;99.90
64012;DHT22;50211;52.768;12.124;2023-08-17T05:42:15;17.60;99.90
64012;DHT22;50211;52.768;12.124;2023-08-17T05:44:41;17.60;99.90
64012;DHT22;50211;52.768;12.124;2023-08-17T05:47:06;17.60;99.90
64012;DHT22;50211;52.768;12.124;2023-08-17T05:49:32;17.60;99.90
64012;DHT22;50211;52.768;12.124;2023-08-17T05:51:57;17.60;99.90
64012;DHT22;50211;52.768;12.124;2023-08-17T05:54:23;17.70;99.90
64012;DHT22;50211;52.768;12.124;2023-08-17T05:56:48;17.60;99.90
64012;DHT22;50211;52.768;12.124;2023-08-17T05:59:14;17.60;99.90
64012;DHT22;50211;52.768;12.124;2023-08-17T06:01:40;17.50;99.90
64012;DHT22;50211;52.768;12.124;2023-08-17T06:04:06;17.50;99.90
64012;DHT22;50211;52.768;12.124;2023-08-17T06:06:31;17.40;99.90
64012;DHT22;50211;52.768;12.124;2023-08-17T06:08:57;17.40;99.90
64012;DHT22;50211;52.768;12.124;2023-08-17T06:11:22;17.40;99.90
64012;DHT22;50211;52.768;12.124;2023-08-17T06:13:49;17.30;99.90
64012;DHT22;50211;52.768;12.124;2023-08-17T06:16:14;17.30;99.90
64012;DHT22;50211;52.768;12.124;2023-08-17T06:18:41;17.30;99.90
64012;DHT22;50211;52.768;12.124;2023-08-17T06:21:07;17.20;99.90
64012;DHT22;50211;52.768;12.124;2023-08-17T06:23:32;17.20;99.90
64012;DHT22;50211;52.768;12.124;2023-08-17T06:25:58;17.20;99.90
64012;DHT22;50211;52.768;12.124;2023-08-17T06:28:25;17.10;99.90
64012;DHT22;50211;52.768;12.124;2023-08-17T06:30:54;17.10;99.90
64012;DHT22;50211;52.768;12.124;2023-08-17T06:33:21;17.00;99.90
64012;DHT22;50211;52.768;12.124;2023-08-17T06:35:46;16.90;99.90
64012;DHT22;50211;52.768;12.124;2023-08-17T06:38:12;16.80;99.90
64012;DHT22;50211;52.768;12.124;2023-08-17T06:40:37;16.70;99.90
64012;DHT22;50211;52.768;12.124;2023-08-17T06:43:03;16.60;99.90
64012;DHT22;50211;52.768;12.124;2023-08-17T06:45:30;16.50;99.90
64012;DHT22;50211;52.768;12.124;2023-08-17T06:47:56;16.50;99.90
64012;DHT22;50211;52.768;12.124;2023-08-17T06:50:22;16.50;99.90
64012;DHT22;50211;52.768;12.124;2023-08-17T06:52:47;16.50;99.90
64012;DHT22;50211;52.768;12.124;2023-08-17T06:55:13;16.50;99.90
64012;DHT22;50211;52.768;12.124;2023-08-17T06:57:38;16.50;99.90
64012;DHT22;50211;52.768;12.124;2023-08-17T07:00:04;16.50;99.90
64012;DHT22;50211;52.768;12.124;2023-08-17T07:02:33;16.50;99.90
64012;DHT22;50211;52.768;12.124;2023-08-17T07:05:00;16.60;99.90
64012;DHT22;50211;52.768;12.124;2023-08-17T07:07:25;16.60;99.90
64012;DHT22;50211;52.768;12.124;2023-08-17T07:09:51;16.70;99.90
64012;DHT22;50211;52.768;12.124;2023-08-17T07:12:16;16.70;99.90
64012;DHT22;50211;52.768;12.124;2023-08-17T07:14:42;16.70;99.90
64012;DHT22;50211;52.768;12.124;2023-08-17T07:17:07;16.80;99.90
64012;DHT22;50211;52.768;12.124;2023-08-17T07:19:33;16.80;99.90
64012;DHT22;50211;52.768;12.124;2023-08-17T07:21:58;16.80;99.90
64012;DHT22;50211;52.768;12.124;2023-08-17T07:24:23;16.90;99.90
64012;DHT22;50211;52.768;12.124;2023-08-17T07:26:49;16.90;99.90
64012;DHT22;50211;52.768;12.124;2023-08-17T07:29:14;16.90;99.90
64012;DHT22;50211;52.768;12.124;2023-08-17T07:31:40;16.90;99.90
64012;DHT22;50211;52.768;12.124;2023-08-17T07:34:06;16.90;99.90
64012;DHT22;50211;52.768;12.124;2023-08-17T07:36:32;16.90;99.90
64012;DHT22;50211;52.768;12.124;2023-08-17T07:38:58;17.00;99.90
64012;DHT22;50211;52.768;12.124;2023-08-17T07:41:24;17.10;99.90
64012;DHT22;50211;52.768;12.124;2023-08-17T07:43:49;17.00;99.90
64012;DHT22;50211;52.768;12.124;2023-08-17T07:46:15;17.10;99.90
64012;DHT22;50211;52.768;12.124;2023-08-17T07:48:40;17.10;99.90
64012;DHT22;50211;52.768;12.124;2023-08-17T07:51:06;17.10;99.90
64012;DHT22;50211;52.768;12.124;2023-08-17T07:53:31;17.10;99.90
64012;DHT22;50211;52.768;12.124;2023-08-17T07:55:57;17.20;99.90
64012;DHT22;50211;52.768;12.124;2023-08-17T07:58:23;17.10;99.90
64012;DHT22;50211;52.768;12.124;2023-08-17T08:00:48;17.20;99.90
64012;DHT22;50211;52.768;12.124;2023-08-17T08:03:14;17.20;99.90
64012;DHT22;50211;52.768;12.124;2023-08-17T08:05:40;17.30;99.90
64012;DHT22;50211;52.768;12.124;2023-08-17T08:08:05;17.30;99.90
64012;DHT22;50211;52.768;12.124;2023-08-17T08:10:31;17.30;99.90
64012;DHT22;50211;52.768;12.124;2023-08-17T08:12:56;17.30;99.90
64012;DHT22;50211;52.768;12.124;2023-08-17T08:15:22;17.30;99.90
64012;DHT22;50211;52.768;12.124;2023-08-17T08:17:48;17.40;99.90
64012;DHT22;50211;52.768;12.124;2023-08-17T08:20:13;17.40;99.90
64012;DHT22;50211;52.768;12.124;2023-08-17T08:22:39;17.50;99.90
64012;DHT22;50211;52.768;12.124;2023-08-17T08:25:04;17.60;99.90
64012;DHT22;50211;52.768;12.124;2023-08-17T08:27:30;17.70;99.90
64012;DHT22;50211;52.768;12.124;2023-08-17T08:29:55;17.80;99.90
64012;DHT22;50211;52.768;12.124;2023-08-17T08:32:21;17.80;99.90
64012;DHT22;50211;52.768;12.124;2023-08-17T08:34:46;17.90;99.90
64012;DHT22;50211;52.768;12.124;2023-08-17T08:37:12;17.90;99.90
64012;DHT22;50211;52.768;12.124;2023-08-17T08:39:54;18.00;99.90
64012;DHT22;50211;52.768;12.124;2023-08-17T08:42:21;18.10;99.90
64012;DHT22;50211;52.768;12.124;2023-08-17T08:44:47;18.20;99.90
64012;DHT22;50211;52.768;12.124;2023-08-17T08:47:14;18.20;99.90
64012;DHT22;50211;52.768;12.124;2023-08-17T08:50:01;18.20;99.90
64012;DHT22;50211;52.768;12.124;2023-08-17T08:52:42;18.30;99.90
64012;DHT22;50211;52.768;12.124;2023-08-17T08:55:11;18.30;99.90
64012;DHT22;50211;52.768;12.124;2023-08-17T08:57:38;18.30;99.90
64012;DHT22;50211;52.768;12.124;2023-08-17T09:00:05;18.40;99.90
64012;DHT22;50211;52.768;12.124;2023-08-17T09:02:31;18.40;99.90
64012;DHT22;50211;52.768;12.124;2023-08-17T09:04:59;18.50;99.90
64012;DHT22;50211;52.768;12.124;2023-08-17T09:07:25;18.50;99.90
64012;DHT22;50211;52.768;12.124;2023-08-17T09:09:52;18.50;99.90
64012;DHT22;50211;52.768;12.124;2023-08-17T09:12:18;18.70;99.90
64012;DHT22;50211;52.768;12.124;2023-08-17T09:14:43;18.70;99.90
64012;DHT22;50211;52.768;12.124;2023-08-17T09:17:09;18.90;99.90
64012;DHT22;50211;52.768;12.124;2023-08-17T09:19:35;19.00;99.90
64012;DHT22;50211;52.768;12.124;2023-08-17T09:22:00;19.00;99.90
64012;DHT22;50211;52.768;12.124;2023-08-17T09:24:36;19.00;99.90
64012;DHT22;50211;52.768;12.124;2023-08-17T09:27:03;18.90;99.90
64012;DHT22;50211;52.768;12.124;2023-08-17T09:29:28;19.00;99.90
64012;DHT22;50211;52.768;12.124;2023-08-17T09:32:07;19.00;99.90
64012;DHT22;50211;52.768;12.124;2023-08-17T09:34:32;19.00;99.90
64012;DHT22;50211;52.768;12.124;2023-08-17T09:37:07;19.10;99.90
64012;DHT22;50211;52.768;12.124;2023-08-17T09:39:32;19.10;99.90
64012;DHT22;50211;52.768;12.124;2023-08-17T09:41:59;19.30;99.90
64012;DHT22;50211;52.768;12.124;2023-08-17T09:44:24;19.50;99.90
64012;DHT22;50211;52.768;12.124;2023-08-17T09:46:50;19.70;99.90
64012;DHT22;50211;52.768;12.124;2023-08-17T09:49:17;19.90;99.90
64012;DHT22;50211;52.768;12.124;2023-08-17T09:51:44;20.00;99.90
64012;DHT22;50211;52.768;12.124;2023-08-17T09:54:23;20.10;99.90
64012;DHT22;50211;52.768;12.124;2023-08-17T09:56:52;20.20;99.90
64012;DHT22;50211;52.768;12.124;2023-08-17T09:59:18;20.30;99.90
64012;DHT22;50211;52.768;12.124;2023-08-17T10:01:48;20.30;99.90
64012;DHT22;50211;52.768;12.124;2023-08-17T10:04:15;20.40;99.90
64012;DHT22;50211;52.768;12.124;2023-08-17T10:06:42;20.30;99.90
64012;DHT22;50211;52.768;12.124;2023-08-17T10:09:11;20.20;99.90
64012;DHT22;50211;52.768;12.124;2023-08-17T10:11:39;20.30;99.90
64012;DHT22;50211;52.768;12.124;2023-08-17T10:14:17;20.40;99.90
64012;DHT22;50211;52.768;12.124;2023-08-17T10:16:49;20.60;99.90
64012;DHT22;50211;52.768;12.124;2023-08-17T10:19:37;21.00;99.90
64012;DHT22;50211;52.768;12.124;2023-08-17T10:22:19;21.70;99.90
64012;DHT22;50211;52.768;12.124;2023-08-17T10:24:45;22.30;99.90
64012;DHT22;50211;52.768;12.124;2023-08-17T10:27:11;22.60;99.90
64012;DHT22;50211;52.768;12.124;2023-08-17T10:29:39;22.90;99.90
64012;DHT22;50211;52.768;12.124;2023-08-17T10:32:06;22.90;99.90
64012;DHT22;50211;52.768;12.124;2023-08-17T10:34:34;23.00;99.90
64012;DHT22;50211;52.768;12.124;2023-08-17T10:37:00;23.20;99.90
64012;DHT22;50211;52.768;12.124;2023-08-17T10:39:28;23.40;99.90
64012;DHT22;50211;52.768;12.124;2023-08-17T10:41:54;23.40;99.90
64012;DHT22;50211;52.768;12.124;2023-08-17T10:44:44;23.70;99.90
64012;DHT22;50211;52.768;12.124;2023-08-17T10:47:24;23.90;99.90
64012;DHT22;50211;52.768;12.124;2023-08-17T10:50:04;24.30;99.90
64012;DHT22;50211;52.768;12.124;2023-08-17T10:52:33;24.30;99.90
64012;DHT22;50211;52.768;12.124;2023-08-17T10:55:08;24.30;99.90
64012;DHT22;50211;52.768;12.124;2023-08-17T11:00:14;24.00;99.90
64012;DHT22;50211;52.768;12.124;2023-08-17T11:02:53;24.20;99.90
64012;DHT22;50211;52.768;12.124;2023-08-17T11:08:12;24.70;99.90
64012;DHT22;50211;52.768;12.124;2023-08-17T11:10:48;24.60;99.90
64012;DHT22;50211;52.768;12.124;2023-08-17T11:13:22;24.30;99.90
64012;DHT22;50211;52.768;12.124;2023-08-17T11:15:48;24.10;99.90
64012;DHT22;50211;52.768;12.124;2023-08-17T11:18:14;24.30;99.90
64012;DHT22;50211;52.768;12.124;2023-08-17T11:20:41;24.70;99.90
64012;DHT22;50211;52.768;12.124;2023-08-17T11:23:08;24.90;99.90
64012;DHT22;50211;52.768;12.124;2023-08-17T11:25:34;24.90;99.90
64012;DHT22;50211;52.768;12.124;2023-08-17T11:28:05;25.00;99.90
64012;DHT22;50211;52.768;12.124;2023-08-17T11:30:31;25.20;99.90
64012;DHT22;50211;52.768;12.124;2023-08-17T11:32:59;25.00;99.90
64012;DHT22;50211;52.768;12.124;2023-08-17T11:35:25;25.20;99.90
64012;DHT22;50211;52.768;12.124;2023-08-17T11:37:51;25.40;99.90
64012;DHT22;50211;52.768;12.124;2023-08-17T11:40:17;25.70;99.90
64012;DHT22;50211;52.768;12.124;2023-08-17T11:42:43;25.70;99.90
64012;DHT22;50211;52.768;12.124;2023-08-17T11:45:09;25.40;99.90
64012;DHT22;50211;52.768;12.124;2023-08-17T11:47:35;25.50;99.90
64012;DHT22;50211;52.768;12.124;2023-08-17T11:50:05;25.90;99.90
64012;DHT22;50211;52.768;12.124;2023-08-17T11:52:31;26.00;99.90
64012;DHT22;50211;52.768;12.124;2023-08-17T11:54:58;26.50;99.90
64012;DHT22;50211;52.768;12.124;2023-08-17T11:57:24;26.50;99.90
64012;DHT22;50211;52.768;12.124;2023-08-17T11:59:54;26.80;99.90
64012;DHT22;50211;52.768;12.124;2023-08-17T12:02:21;26.60;99.90
64012;DHT22;50211;52.768;12.124;2023-08-17T12:04:46;26.70;99.90
64012;DHT22;50211;52.768;12.124;2023-08-17T12:07:12;26.90;99.90
64012;DHT22;50211;52.768;12.124;2023-08-17T12:09:37;26.50;99.90
64012;DHT22;50211;52.768;12.124;2023-08-17T12:12:04;25.80;99.90
64012;DHT22;50211;52.768;12.124;2023-08-17T12:14:30;25.40;99.90
64012;DHT22;50211;52.768;12.124;2023-08-17T12:16:56;25.20;99.90
64012;DHT22;50211;52.768;12.124;2023-08-17T12:19:24;25.20;99.90
64012;DHT22;50211;52.768;12.124;2023-08-17T12:21:50;25.70;99.90
64012;DHT22;50211;52.768;12.124;2023-08-17T12:24:15;26.40;99.90
64012;DHT22;50211;52.768;12.124;2023-08-17T12:26:44;26.60;99.90
64012;DHT22;50211;52.768;12.124;2023-08-17T12:29:10;26.30;99.90
64012;DHT22;50211;52.768;12.124;2023-08-17T12:31:35;26.40;99.90
64012;DHT22;50211;52.768;12.124;2023-08-17T12:34:01;26.20;99.90
64012;DHT22;50211;52.768;12.124;2023-08-17T12:36:27;26.60;99.90
64012;DHT22;50211;52.768;12.124;2023-08-17T12:38:52;26.80;99.90
64012;DHT22;50211;52.768;12.124;2023-08-17T12:41:18;26.30;99.90
64012;DHT22;50211;52.768;12.124;2023-08-17T12:43:45;25.90;99.90
64012;DHT22;50211;52.768;12.124;2023-08-17T12:46:10;26.20;99.90
64012;DHT22;50211;52.768;12.124;2023-08-17T12:48:36;26.70;99.90
64012;DHT22;50211;52.768;12.124;2023-08-17T12:51:02;27.10;99.90
64012;DHT22;50211;52.768;12.124;2023-08-17T12:53:28;26.90;99.90
64012;DHT22;50211;52.768;12.124;2023-08-17T12:55:53;26.60;99.90
64012;DHT22;50211;52.768;12.124;2023-08-17T12:58:19;26.50;99.90
64012;DHT22;50211;52.768;12.124;2023-08-17T13:00:44;26.70;99.90
64012;DHT22;50211;52.768;12.124;2023-08-17T13:03:09;27.00;99.90
64012;DHT22;50211;52.768;12.124;2023-08-17T13:05:35;26.90;99.90
64012;DHT22;50211;52.768;12.124;2023-08-17T13:08:00;26.40;99.90
64012;DHT22;50211;52.768;12.124;2023-08-17T13:10:27;26.00;99.90
64012;DHT22;50211;52.768;12.124;2023-08-17T13:12:52;25.90;99.90
64012;DHT22;50211;52.768;12.124;2023-08-17T13:15:21;25.80;99.90
64012;DHT22;50211;52.768;12.124;2023-08-17T13:17:46;26.00;99.90
64012;DHT22;50211;52.768;12.124;2023-08-17T13:20:12;26.50;99.90
64012;DHT22;50211;52.768;12.124;2023-08-17T13:22:38;27.00;99.90
64012;DHT22;50211;52.768;12.124;2023-08-17T13:25:04;27.20;99.90
64012;DHT22;50211;52.768;12.124;2023-08-17T13:27:29;27.40;99.90
64012;DHT22;50211;52.768;12.124;2023-08-17T13:29:55;27.60;99.90
64012;DHT22;50211;52.768;12.124;2023-08-17T13:32:20;27.60;99.90
64012;DHT22;50211;52.768;12.124;2023-08-17T13:34:46;27.50;99.90
64012;DHT22;50211;52.768;12.124;2023-08-17T13:37:11;27.30;99.90
64012;DHT22;50211;52.768;12.124;2023-08-17T13:39:37;27.00;99.90
64012;DHT22;50211;52.768;12.124;2023-08-17T13:42:02;26.80;99.90
64012;DHT22;50211;52.768;12.124;2023-08-17T13:44:28;26.80;99.90
64012;DHT22;50211;52.768;12.124;2023-08-17T13:46:53;26.90;99.90
64012;DHT22;50211;52.768;12.124;2023-08-17T13:49:19;26.90;99.90
64012;DHT22;50211;52.768;12.124;2023-08-17T13:51:44;26.60;99.90
64012;DHT22;50211;52.768;12.124;2023-08-17T13:54:10;26.50;99.90
64012;DHT22;50211;52.768;12.124;2023-08-17T13:56:35;26.80;99.90
64012;DHT22;50211;52.768;12.124;2023-08-17T13:59:01;27.10;99.90
64012;DHT22;50211;52.768;12.124;2023-08-17T14:01:27;26.90;99.90
64012;DHT22;50211;52.768;12.124;2023-08-17T14:03:53;26.60;99.90
64012;DHT22;50211;52.768;12.124;2023-08-17T14:06:18;26.50;99.90
64012;DHT22;50211;52.768;12.124;2023-08-17T14:08:44;26.10;99.90
64012;DHT22;50211;52.768;12.124;2023-08-17T14:11:09;25.90;99.90
64012;DHT22;50211;52.768;12.124;2023-08-17T14:13:35;25.80;99.90
64012;DHT22;50211;52.768;12.124;2023-08-17T14:16:02;25.50;99.90
64012;DHT22;50211;52.768;12.124;2023-08-17T14:18:27;25.50;99.90
64012;DHT22;50211;52.768;12.124;2023-08-17T14:20:53;25.50;99.90
64012;DHT22;50211;52.768;12.124;2023-08-17T14:23:19;25.10;99.90
64012;DHT22;50211;52.768;12.124;2023-08-17T14:25:44;24.90;99.90
64012;DHT22;50211;52.768;12.124;2023-08-17T14:28:10;24.90;99.90
64012;DHT22;50211;52.768;12.124;2023-08-17T14:30:35;24.90;99.90
64012;DHT22;50211;52.768;12.124;2023-08-17T14:33:01;24.80;99.90
64012;DHT22;50211;52.768;12.124;2023-08-17T14:35:27;24.90;99.90
64012;DHT22;50211;52.768;12.124;2023-08-17T14:37:52;24.70;99.90
64012;DHT22;50211;52.768;12.124;2023-08-17T14:40:18;24.70;99.90
64012;DHT22;50211;52.768;12.124;2023-08-17T14:42:43;24.60;99.90
64012;DHT22;50211;52.768;12.124;2023-08-17T14:45:10;24.60;99.90
64012;DHT22;50211;52.768;12.124;2023-08-17T14:47:36;24.60;99.90
64012;DHT22;50211;52.768;12.124;2023-08-17T14:50:01;24.60;99.90
64012;DHT22;50211;52.768;12.124;2023-08-17T14:52:27;24.70;99.90
64012;DHT22;50211;52.768;12.124;2023-08-17T14:54:52;24.70;99.90
64012;DHT22;50211;52.768;12.124;2023-08-17T14:57:18;24.70;99.90
64012;DHT22;50211;52.768;12.124;2023-08-17T14:59:43;24.50;99.90
64012;DHT22;50211;52.768;12.124;2023-08-17T15:02:09;24.50;99.90
64012;DHT22;50211;52.768;12.124;2023-08-17T15:04:35;24.50;99.90
64012;DHT22;50211;52.768;12.124;2023-08-17T15:07:04;24.50;99.90
64012;DHT22;50211;52.768;12.124;2023-08-17T15:09:35;24.50;99.90
64012;DHT22;50211;52.768;12.124;2023-08-17T15:12:00;24.50;99.90
64012;DHT22;50211;52.768;12.124;2023-08-17T15:14:26;24.50;99.90
64012;DHT22;50211;52.768;12.124;2023-08-17T15:16:51;24.60;99.90
64012;DHT22;50211;52.768;12.124;2023-08-17T15:19:17;24.50;99.90